Time;durP1;ratioP1;P1;durP2;ratioP2;P2;SDS_P1;SDS_P2;PMS_P1;PMS_P2;Temp;Humidity;BMP_temperature;BMP_pressure;BME280_temperature;BME280_humidity;BME280_pressure;Samples;Min_cycle;Max_cycle;Signal;HPM_P1;HPM_P2
2021/08/22 00:00:11;;;;;;;;;9.00;9.00;;;;;;;;5073355;28;51060;-53
2021/08/22 00:02:37;;;;;;;;;7.33;7.00;;;;;;;;5072987;28;51338;-55
2021/08/22 00:05:03;;;;;;;;;8.67;8.00;;;;;;;;5072802;28;51119;-54
2021/08/22 00:07:28;;;;;;;;;8.00;8.00;;;;;;;;5073174;28;50926;-53
2021/08/22 00:09:53;;;;;;;;;8.33;7.67;;;;;;;;5073193;28;50878;-54
2021/08/22 00:12:18;;;;;;;;;7.00;7.00;;;;;;;;5072974;28;51124;-54
2021/08/22 00:14:44;;;;;;;;;9.33;9.33;;;;;;;;5073189;28;50956;-53
2021/08/22 00:17:09;;;;;;;;;11.00;10.00;;;;;;;;5072875;28;51112;-52
2021/08/22 00:19:34;;;;;;;;;9.67;9.67;;;;;;;;5054619;28;51009;-53
2021/08/22 00:21:59;;;;;;;;;10.33;10.33;;;;;;;;5072604;28;52050;-54
2021/08/22 00:24:24;;;;;;;;;8.00;8.00;;;;;;;;5054897;28;50809;-54
2021/08/22 00:26:51;;;;;;;;;9.00;9.00;;;;;;;;5072940;28;50884;-55
2021/08/22 00:29:16;;;;;;;;;10.00;10.00;;;;;;;;5073051;28;50918;-54
2021/08/22 00:31:41;;;;;;;;;12.67;11.00;;;;;;;;5072518;28;51776;-54
2021/08/22 00:34:06;;;;;;;;;10.00;8.67;;;;;;;;5072846;28;50872;-53
2021/08/22 00:36:32;;;;;;;;;8.33;7.00;;;;;;;;5072826;28;50886;-48
2021/08/22 00:38:57;;;;;;;;;6.00;5.33;;;;;;;;5073001;28;50815;-53
2021/08/22 00:41:22;;;;;;;;;8.00;8.00;;;;;;;;5054175;28;52470;-54
2021/08/22 00:43:47;;;;;;;;;10.00;9.00;;;;;;;;5073191;28;51074;-53
2021/08/22 00:46:13;;;;;;;;;9.33;7.00;;;;;;;;5072751;28;51248;-51
2021/08/22 00:48:39;;;;;;;;;9.00;9.00;;;;;;;;5072809;28;51049;-54
2021/08/22 00:51:05;;;;;;;;;7.00;7.00;;;;;;;;5072312;28;51786;-53
2021/08/22 00:53:31;;;;;;;;;7.67;7.67;;;;;;;;5072384;28;50963;-54
2021/08/22 00:55:58;;;;;;;;;8.33;8.33;;;;;;;;5075777;28;51270;-54
2021/08/22 00:58:23;;;;;;;;;8.00;8.00;;;;;;;;5076513;28;52067;-54
2021/08/22 01:00:48;;;;;;;;;10.00;9.00;;;;;;;;5075711;28;51923;-52
2021/08/22 01:03:14;;;;;;;;;8.33;8.00;;;;;;;;5075519;28;51003;-53
2021/08/22 01:05:42;;;;;;;;;8.00;7.67;;;;;;;;5076086;28;50966;-54
2021/08/22 01:08:15;;;;;;;;;10.00;8.33;;;;;;;;5076202;28;51135;-53
2021/08/22 01:10:41;;;;;;;;;9.00;8.00;;;;;;;;5075853;28;52229;-51
2021/08/22 01:13:09;;;;;;;;;9.67;9.67;;;;;;;;5075892;28;50902;-51
2021/08/22 01:15:36;;;;;;;;;8.00;8.00;;;;;;;;5076159;28;51083;-50
2021/08/22 01:18:02;;;;;;;;;9.00;7.33;;;;;;;;5057637;28;51279;-52
2021/08/22 01:20:27;;;;;;;;;7.67;7.33;;;;;;;;5026561;28;52213;-49
2021/08/22 01:22:54;;;;;;;;;10.00;9.00;;;;;;;;5075941;28;50924;-53
2021/08/22 01:25:20;;;;;;;;;8.00;7.00;;;;;;;;5076129;28;50985;-51
2021/08/22 01:27:45;;;;;;;;;7.00;7.00;;;;;;;;5072795;27;51080;-50
2021/08/22 01:30:15;;;;;;;;;7.00;7.00;;;;;;;;5075480;28;51678;-54
2021/08/22 01:32:41;;;;;;;;;9.33;8.00;;;;;;;;5075898;28;51017;-52
2021/08/22 01:35:08;;;;;;;;;8.00;7.67;;;;;;;;5075356;28;51041;-51
2021/08/22 01:37:35;;;;;;;;;8.00;7.00;;;;;;;;5075796;28;50832;-53
2021/08/22 01:40:01;;;;;;;;;9.00;9.00;;;;;;;;5074850;28;51329;-52
2021/08/22 01:42:27;;;;;;;;;7.00;7.00;;;;;;;;5056564;28;51060;-53
2021/08/22 01:44:52;;;;;;;;;7.00;6.00;;;;;;;;5075485;28;50977;-52
2021/08/22 01:47:17;;;;;;;;;5.33;5.33;;;;;;;;5075961;28;50882;-53
2021/08/22 01:49:44;;;;;;;;;9.00;9.00;;;;;;;;5075031;28;53174;-53
2021/08/22 01:52:10;;;;;;;;;6.67;5.67;;;;;;;;5057361;28;51235;-54
2021/08/22 01:54:36;;;;;;;;;6.67;6.67;;;;;;;;5075400;28;51088;-52
2021/08/22 01:57:02;;;;;;;;;8.67;8.67;;;;;;;;5075725;28;51133;-53
2021/08/22 01:59:27;;;;;;;;;6.00;5.67;;;;;;;;5056887;28;52019;-52
2021/08/22 02:01:52;;;;;;;;;7.00;6.00;;;;;;;;5075595;28;51144;-52
2021/08/22 02:04:24;;;;;;;;;7.33;7.00;;;;;;;;5075110;28;51248;-52
2021/08/22 02:07:02;;;;;;;;;8.00;7.67;;;;;;;;5074850;28;51044;-51
2021/08/22 02:09:41;;;;;;;;;9.00;6.00;;;;;;;;5056728;28;52383;-53
2021/08/22 02:12:11;;;;;;;;;5.67;5.33;;;;;;;;5075022;28;50877;-53
2021/08/22 02:14:39;;;;;;;;;6.67;6.33;;;;;;;;5075254;28;51077;-53
2021/08/22 02:17:04;;;;;;;;;6.00;6.00;;;;;;;;5075227;28;50898;-52
2021/08/22 02:19:31;;;;;;;;;6.00;6.00;;;;;;;;5056300;28;51754;-53
2021/08/22 02:21:56;;;;;;;;;7.00;7.00;;;;;;;;5074916;28;50942;-52
2021/08/22 02:24:22;;;;;;;;;5.33;5.33;;;;;;;;5056649;28;51452;-53
2021/08/22 02:26:48;;;;;;;;;7.67;7.67;;;;;;;;5075037;28;51303;-53
2021/08/22 02:29:13;;;;;;;;;7.00;7.00;;;;;;;;5074771;28;51593;-52
2021/08/22 02:31:38;;;;;;;;;6.33;6.00;;;;;;;;5056291;28;51322;-53
2021/08/22 02:34:03;;;;;;;;;7.00;6.00;;;;;;;;5074587;28;51229;-51
2021/08/22 02:36:29;;;;;;;;;7.33;7.33;;;;;;;;5074965;28;51050;-53
2021/08/22 02:38:54;;;;;;;;;5.00;5.00;;;;;;;;5074326;28;51922;-52
2021/08/22 02:41:20;;;;;;;;;6.33;5.00;;;;;;;;5074647;28;51009;-52
2021/08/22 02:43:45;;;;;;;;;5.67;5.33;;;;;;;;5074888;28;51600;-51
2021/08/22 02:46:11;;;;;;;;;8.00;7.33;;;;;;;;5074946;28;51162;-54
2021/08/22 02:48:36;;;;;;;;;6.00;6.00;;;;;;;;5074204;28;51418;-54
2021/08/22 02:51:02;;;;;;;;;7.00;7.00;;;;;;;;5074583;28;51100;-53
2021/08/22 02:53:27;;;;;;;;;7.33;6.33;;;;;;;;5074423;28;50905;-57
2021/08/22 02:55:52;;;;;;;;;6.00;5.33;;;;;;;;5056404;28;50989;-52
2021/08/22 02:58:18;;;;;;;;;7.00;6.00;;;;;;;;5074500;28;52115;-54
2021/08/22 03:00:44;;;;;;;;;5.67;5.67;;;;;;;;5074401;28;50907;-54
2021/08/22 03:03:09;;;;;;;;;7.00;6.00;;;;;;;;5074462;28;50788;-51
2021/08/22 03:05:34;;;;;;;;;7.00;5.00;;;;;;;;5056243;28;51304;-51
2021/08/22 03:07:59;;;;;;;;;6.33;6.00;;;;;;;;5073656;28;51107;-54
2021/08/22 03:10:24;;;;;;;;;7.00;6.00;;;;;;;;5074215;28;50958;-53
2021/08/22 03:12:50;;;;;;;;;1.33;1.00;;;;;;;;5074205;28;50773;-52
2021/08/22 03:15:15;;;;;;;;;7.33;7.33;;;;;;;;5074447;28;51044;-52
2021/08/22 03:17:40;;;;;;;;;6.33;6.33;;;;;;;;5073041;28;52007;-51
2021/08/22 03:20:06;;;;;;;;;5.33;5.00;;;;;;;;5073679;28;50911;-52
2021/08/22 03:22:31;;;;;;;;;6.33;6.00;;;;;;;;5074401;28;50943;-53
2021/08/22 03:24:57;;;;;;;;;5.33;5.33;;;;;;;;5056053;28;51121;-52
2021/08/22 03:27:22;;;;;;;;;7.00;6.33;;;;;;;;5071665;27;51861;-50
2021/08/22 03:29:47;;;;;;;;;7.67;7.33;;;;;;;;5067638;28;50836;-52
2021/08/22 03:32:13;;;;;;;;;5.00;5.00;;;;;;;;5073904;28;51160;-51
2021/08/22 03:34:38;;;;;;;;;7.00;5.67;;;;;;;;5073992;28;51102;-52
2021/08/22 03:37:03;;;;;;;;;6.00;6.00;;;;;;;;5073709;28;51022;-49
2021/08/22 03:39:29;;;;;;;;;6.33;6.00;;;;;;;;5074083;28;51017;-52
2021/08/22 03:41:55;;;;;;;;;6.33;6.33;;;;;;;;5073855;28;51290;-52
2021/08/22 03:44:20;;;;;;;;;9.00;8.00;;;;;;;;5074082;28;51241;-51
2021/08/22 03:46:45;;;;;;;;;9.00;7.67;;;;;;;;5073551;28;52054;-52
2021/08/22 03:49:10;;;;;;;;;8.00;7.00;;;;;;;;5073677;28;51149;-53
2021/08/22 03:51:35;;;;;;;;;8.67;7.33;;;;;;;;5073755;28;51243;-52
2021/08/22 03:54:01;;;;;;;;;8.00;7.00;;;;;;;;5073750;28;51005;-54
2021/08/22 03:56:26;;;;;;;;;8.00;8.00;;;;;;;;5073417;28;52240;-53
2021/08/22 03:58:51;;;;;;;;;8.00;8.00;;;;;;;;5055479;28;50914;-53
2021/08/22 04:01:16;;;;;;;;;9.33;8.67;;;;;;;;5073614;28;50973;-53
2021/08/22 04:03:41;;;;;;;;;7.33;7.33;;;;;;;;5073656;28;50957;-54
2021/08/22 04:06:07;;;;;;;;;7.67;7.00;;;;;;;;5073076;28;51031;-54
2021/08/22 04:08:35;;;;;;;;;7.67;7.67;;;;;;;;5073641;28;50914;-54
2021/08/22 04:11:00;;;;;;;;;8.33;8.00;;;;;;;;5073346;28;51031;-52
2021/08/22 04:13:25;;;;;;;;;8.67;8.00;;;;;;;;5055273;28;51176;-53
2021/08/22 04:15:50;;;;;;;;;7.00;7.00;;;;;;;;5072967;28;52104;-53
2021/08/22 04:18:16;;;;;;;;;9.00;8.00;;;;;;;;5073162;28;50811;-54
2021/08/22 04:20:42;;;;;;;;;8.67;8.00;;;;;;;;5073216;28;50877;-54
2021/08/22 04:23:07;;;;;;;;;9.00;8.00;;;;;;;;5073429;28;50945;-54
2021/08/22 04:25:32;;;;;;;;;8.67;8.67;;;;;;;;5072757;28;51221;-54
2021/08/22 04:27:58;;;;;;;;;7.00;6.00;;;;;;;;5073325;28;50866;-54
2021/08/22 04:30:23;;;;;;;;;7.33;7.33;;;;;;;;5072632;28;51183;-54
2021/08/22 04:32:48;;;;;;;;;6.00;5.33;;;;;;;;5054937;28;51144;-53
2021/08/22 04:35:13;;;;;;;;;7.33;7.33;;;;;;;;5072818;28;51059;-53
2021/08/22 04:37:38;;;;;;;;;2.67;1.00;;;;;;;;5073205;28;50989;-53
2021/08/22 04:40:06;;;;;;;;;8.00;7.00;;;;;;;;5072690;28;51261;-54
2021/08/22 04:42:31;;;;;;;;;7.00;6.67;;;;;;;;5073183;28;51165;-53
2021/08/22 04:44:57;;;;;;;;;5.67;5.67;;;;;;;;5072510;28;51796;-53
2021/08/22 04:47:22;;;;;;;;;6.00;6.00;;;;;;;;5072920;28;51020;-53
2021/08/22 04:49:48;;;;;;;;;7.67;7.33;;;;;;;;5072443;28;51049;-53
2021/08/22 04:52:15;;;;;;;;;6.33;6.33;;;;;;;;5073097;28;50895;-54
2021/08/22 04:54:40;;;;;;;;;8.33;6.67;;;;;;;;5072326;28;52312;-53
2021/08/22 04:57:05;;;;;;;;;5.67;5.00;;;;;;;;5072616;28;51132;-52
2021/08/22 04:59:30;;;;;;;;;8.00;6.67;;;;;;;;5040750;28;51057;-53
2021/08/22 05:01:55;;;;;;;;;5.33;5.00;;;;;;;;5072894;28;50845;-53
2021/08/22 05:04:21;;;;;;;;;6.33;6.33;;;;;;;;5072069;28;51134;-53
2021/08/22 05:06:46;;;;;;;;;7.00;6.00;;;;;;;;5072552;28;50863;-53
2021/08/22 05:09:11;;;;;;;;;7.00;6.00;;;;;;;;5054503;28;51074;-53
2021/08/22 05:11:36;;;;;;;;;6.00;5.00;;;;;;;;5072789;28;51309;-53
2021/08/22 05:14:02;;;;;;;;;10.00;8.00;;;;;;;;5072112;28;52158;-53
2021/08/22 05:16:27;;;;;;;;;5.00;5.00;;;;;;;;5072611;28;50978;-54
2021/08/22 05:18:52;;;;;;;;;7.33;7.00;;;;;;;;5053963;28;51235;-51
2021/08/22 05:21:17;;;;;;;;;5.00;3.33;;;;;;;;5072750;28;51316;-52
2021/08/22 05:23:42;;;;;;;;;6.67;6.67;;;;;;;;5072210;28;52015;-50
2021/08/22 05:26:08;;;;;;;;;6.00;5.67;;;;;;;;5072551;28;51270;-51
2021/08/22 05:28:33;;;;;;;;;8.67;7.00;;;;;;;;5068930;27;51060;-50
2021/08/22 05:30:58;;;;;;;;;6.00;5.33;;;;;;;;5062061;28;50869;-50
2021/08/22 05:33:23;;;;;;;;;8.00;7.33;;;;;;;;5072042;28;52099;-53
2021/08/22 05:35:48;;;;;;;;;7.67;7.67;;;;;;;;5072608;28;50977;-52
2021/08/22 05:38:14;;;;;;;;;7.00;6.00;;;;;;;;5072377;28;51126;-53
2021/08/22 05:40:39;;;;;;;;;7.00;6.00;;;;;;;;5072632;28;51028;-53
2021/08/22 05:43:04;;;;;;;;;10.33;7.33;;;;;;;;5075309;28;51754;-53
2021/08/22 05:45:29;;;;;;;;;6.00;6.00;;;;;;;;5057583;28;51127;-54
2021/08/22 05:47:54;;;;;;;;;9.00;8.00;;;;;;;;5075312;28;51099;-53
2021/08/22 05:50:20;;;;;;;;;6.67;6.67;;;;;;;;5076055;28;51147;-51
2021/08/22 05:52:45;;;;;;;;;8.00;7.33;;;;;;;;5075451;28;51972;-54
2021/08/22 05:55:10;;;;;;;;;7.33;6.33;;;;;;;;5075170;28;51032;-51
2021/08/22 05:57:36;;;;;;;;;6.00;6.00;;;;;;;;5074714;28;50945;-50
2021/08/22 06:00:02;;;;;;;;;6.67;6.67;;;;;;;;5075866;28;51147;-54
2021/08/22 06:02:27;;;;;;;;;4.33;3.67;;;;;;;;5075218;28;50955;-53
2021/08/22 06:04:52;;;;;;;;;9.67;8.67;;;;;;;;5075020;28;50940;-52
2021/08/22 06:07:20;;;;;;;;;8.67;8.67;;;;;;;;5075532;28;50945;-53
2021/08/22 06:09:48;;;;;;;;;6.33;5.67;;;;;;;;5075416;28;51228;-50
2021/08/22 06:12:13;;;;;;;;;4.00;3.67;;;;;;;;5074836;28;52374;-54
2021/08/22 06:14:39;;;;;;;;;8.67;7.33;;;;;;;;5074867;28;50943;-53
2021/08/22 06:17:04;;;;;;;;;4.33;4.33;;;;;;;;5075215;28;50913;-50
2021/08/22 06:19:29;;;;;;;;;7.33;6.67;;;;;;;;5075099;28;51488;-50
2021/08/22 06:21:54;;;;;;;;;5.33;5.33;;;;;;;;5074931;28;52066;-52
2021/08/22 06:24:19;;;;;;;;;6.33;5.67;;;;;;;;5075195;28;50966;-53
2021/08/22 06:26:44;;;;;;;;;5.33;4.67;;;;;;;;5070554;28;50954;-53
2021/08/22 06:29:11;;;;;;;;;5.00;4.67;;;;;;;;5057265;28;51397;-52
2021/08/22 06:31:36;;;;;;;;;7.00;6.67;;;;;;;;5074879;28;51861;-52
2021/08/22 06:34:01;;;;;;;;;5.67;5.33;;;;;;;;5074473;28;51009;-53
2021/08/22 06:36:26;;;;;;;;;3.67;3.67;;;;;;;;5075062;28;51182;-53
2021/08/22 06:38:52;;;;;;;;;3.67;3.67;;;;;;;;5074958;28;51068;-53
2021/08/22 06:41:17;;;;;;;;;6.00;5.67;;;;;;;;5074549;28;53005;-54
2021/08/22 06:43:42;;;;;;;;;6.00;5.67;;;;;;;;5074955;28;51085;-54
2021/08/22 06:46:07;;;;;;;;;4.33;4.00;;;;;;;;5074826;28;51174;-54
2021/08/22 06:48:32;;;;;;;;;4.00;4.00;;;;;;;;5074702;28;50922;-55
2021/08/22 06:50:58;;;;;;;;;7.33;5.00;;;;;;;;5074395;28;51174;-53
2021/08/22 06:53:23;;;;;;;;;4.00;4.00;;;;;;;;5074478;28;51022;-54
2021/08/22 06:55:48;;;;;;;;;4.33;4.33;;;;;;;;5056380;28;51054;-53
2021/08/22 06:58:13;;;;;;;;;4.67;4.67;;;;;;;;5075081;28;50870;-53
2021/08/22 07:00:38;;;;;;;;;5.33;5.00;;;;;;;;5074224;28;51150;-54
2021/08/22 07:03:04;;;;;;;;;3.00;3.00;;;;;;;;5074013;28;51001;-53
2021/08/22 07:05:29;;;;;;;;;4.33;4.00;;;;;;;;5055826;28;51340;-54
2021/08/22 07:07:54;;;;;;;;;4.33;3.67;;;;;;;;5074752;28;51018;-53
2021/08/22 07:10:20;;;;;;;;;16.00;11.33;;;;;;;;5072975;28;50933;-53
2021/08/22 07:12:45;;;;;;;;;4.67;4.33;;;;;;;;5074156;28;50900;-53
2021/08/22 07:15:13;;;;;;;;;4.00;4.00;;;;;;;;5074439;28;50895;-52
2021/08/22 07:17:38;;;;;;;;;4.33;4.33;;;;;;;;5073844;28;51188;-52
2021/08/22 07:20:04;;;;;;;;;6.00;5.00;;;;;;;;5073830;28;51140;-54
2021/08/22 07:22:30;;;;;;;;;5.00;4.00;;;;;;;;5074302;28;50976;-54
2021/08/22 07:24:56;;;;;;;;;4.00;3.33;;;;;;;;5074281;28;51044;-53
2021/08/22 07:27:21;;;;;;;;;4.33;3.00;;;;;;;;5074673;28;51176;-50
2021/08/22 07:29:47;;;;;;;;;4.33;4.00;;;;;;;;5068343;27;51916;-54
2021/08/22 07:32:12;;;;;;;;;4.00;4.00;;;;;;;;5074183;28;51069;-55
2021/08/22 07:34:38;;;;;;;;;4.67;3.67;;;;;;;;5073647;28;51112;-53
2021/08/22 07:37:04;;;;;;;;;4.00;3.00;;;;;;;;5074327;28;50985;-55
2021/08/22 07:39:29;;;;;;;;;6.33;6.00;;;;;;;;5072299;28;51032;-54
2021/08/22 07:41:54;;;;;;;;;5.00;4.00;;;;;;;;5073741;28;51031;-54
2021/08/22 07:44:21;;;;;;;;;4.00;4.00;;;;;;;;5073940;28;50975;-54
2021/08/22 07:46:46;;;;;;;;;5.00;4.00;;;;;;;;5073928;28;50858;-53
2021/08/22 07:49:11;;;;;;;;;6.00;4.00;;;;;;;;5054707;28;52847;-54
2021/08/22 07:51:36;;;;;;;;;4.67;4.67;;;;;;;;5073756;28;51099;-55
2021/08/22 07:54:02;;;;;;;;;3.00;3.00;;;;;;;;5073460;28;50819;-55
2021/08/22 07:56:27;;;;;;;;;4.00;4.00;;;;;;;;5073748;28;51382;-55
2021/08/22 07:58:52;;;;;;;;;4.67;4.00;;;;;;;;5073221;28;51213;-51
2021/08/22 08:01:17;;;;;;;;;5.00;4.67;;;;;;;;5073046;28;50898;-54
2021/08/22 08:03:42;;;;;;;;;5.67;5.00;;;;;;;;5072665;28;50807;-55
2021/08/22 08:06:07;;;;;;;;;4.00;3.67;;;;;;;;5073210;28;51362;-54
2021/08/22 08:08:35;;;;;;;;;3.00;2.00;;;;;;;;5072875;28;52321;-54
2021/08/22 08:11:01;;;;;;;;;3.33;2.33;;;;;;;;5054755;28;50978;-54
2021/08/22 08:13:26;;;;;;;;;3.00;2.67;;;;;;;;5073057;28;51041;-55
2021/08/22 08:15:52;;;;;;;;;3.67;3.00;;;;;;;;5054695;28;51048;-54
2021/08/22 08:18:17;;;;;;;;;2.33;2.33;;;;;;;;5072735;28;51046;-55
2021/08/22 08:20:42;;;;;;;;;2.33;2.00;;;;;;;;5073219;28;51050;-55
2021/08/22 08:23:07;;;;;;;;;3.00;3.00;;;;;;;;5073380;28;50990;-54
2021/08/22 08:25:32;;;;;;;;;2.33;2.00;;;;;;;;5073284;28;50919;-53
2021/08/22 08:27:57;;;;;;;;;2.00;2.00;;;;;;;;5073077;28;51059;-54
2021/08/22 08:30:23;;;;;;;;;1.33;1.33;;;;;;;;5072961;28;51117;-53
2021/08/22 08:32:48;;;;;;;;;2.33;2.33;;;;;;;;5072874;28;51318;-54
2021/08/22 08:35:13;;;;;;;;;4.00;3.00;;;;;;;;5073232;28;50942;-53
2021/08/22 08:37:39;;;;;;;;;2.00;2.00;;;;;;;;5072595;28;51206;-54
2021/08/22 08:40:25;;;;;;;;;1.00;1.00;;;;;;;;5072908;28;51021;-54
2021/08/22 08:42:51;;;;;;;;;3.00;2.33;;;;;;;;5072192;27;50975;-54
2021/08/22 08:45:17;;;;;;;;;2.00;2.00;;;;;;;;5054803;28;52098;-53
2021/08/22 08:47:44;;;;;;;;;1.33;1.33;;;;;;;;5071804;28;51869;-54
2021/08/22 08:50:13;;;;;;;;;2.00;2.00;;;;;;;;5072516;28;51056;-54
2021/08/22 08:52:57;;;;;;;;;3.00;3.00;;;;;;;;5072687;28;51137;-53
2021/08/22 08:55:41;;;;;;;;;2.00;2.00;;;;;;;;5072354;28;51789;-52
2021/08/22 08:58:06;;;;;;;;;2.00;2.00;;;;;;;;5072417;28;51949;-54
2021/08/22 09:00:35;;;;;;;;;2.00;2.00;;;;;;;;5072210;28;51054;-53
2021/08/22 09:03:01;;;;;;;;;3.00;2.67;;;;;;;;5054321;28;51175;-54
2021/08/22 09:05:29;;;;;;;;;3.00;2.00;;;;;;;;5072564;28;51027;-54
2021/08/22 09:08:04;;;;;;;;;0.00;0.00;;;;;;;;5054130;28;51827;-54
2021/08/22 09:10:29;;;;;;;;;2.33;2.00;;;;;;;;5072398;28;51078;-51
2021/08/22 09:12:54;;;;;;;;;2.67;2.67;;;;;;;;5072331;28;51119;-54
2021/08/22 09:15:43;;;;;;;;;1.00;1.00;;;;;;;;5072616;28;51056;-54
2021/08/22 09:18:27;;;;;;;;;2.00;2.00;;;;;;;;5075359;28;52253;-54
2021/08/22 09:21:10;;;;;;;;;2.00;2.00;;;;;;;;5075792;28;50972;-54
2021/08/22 09:23:52;;;;;;;;;1.00;1.00;;;;;;;;5075529;28;51086;-54
2021/08/22 09:26:32;;;;;;;;;1.67;1.67;;;;;;;;5076143;28;50843;-54
2021/08/22 09:29:16;;;;;;;;;3.00;2.00;;;;;;;;5075433;28;50908;-53
2021/08/22 09:32:00;;;;;;;;;5.00;4.00;;;;;;;;5069205;27;51074;-51
2021/08/22 09:34:47;;;;;;;;;2.00;2.00;;;;;;;;5075403;28;50927;-53
2021/08/22 09:37:27;;;;;;;;;4.67;4.00;;;;;;;;5075717;28;51294;-53
2021/08/22 09:40:11;;;;;;;;;3.00;3.00;;;;;;;;5074748;28;51898;-53
2021/08/22 09:42:55;;;;;;;;;4.33;3.67;;;;;;;;5075019;28;50967;-52
2021/08/22 09:45:39;;;;;;;;;3.67;3.00;;;;;;;;5075262;28;50902;-51
2021/08/22 09:48:22;;;;;;;;;2.33;2.33;;;;;;;;5074776;28;52004;-53
2021/08/22 09:50:57;;;;;;;;;3.67;3.67;;;;;;;;5074802;28;51280;-54
2021/08/22 09:53:31;;;;;;;;;6.00;5.00;;;;;;;;5074963;28;51149;-52
2021/08/22 09:56:05;;;;;;;;;3.00;3.00;;;;;;;;5074774;28;51088;-54
2021/08/22 09:58:30;;;;;;;;;3.33;3.00;;;;;;;;5056449;28;51589;-53
2021/08/22 10:01:14;;;;;;;;;2.00;2.00;;;;;;;;5074082;28;52044;-52
2021/08/22 10:03:51;;;;;;;;;3.33;3.00;;;;;;;;5074534;28;50937;-54
2021/08/22 10:06:35;;;;;;;;;2.33;2.33;;;;;;;;5074558;28;51108;-54
2021/08/22 10:09:06;;;;;;;;;2.00;2.00;;;;;;;;5074817;28;50957;-51
2021/08/22 10:11:31;;;;;;;;;3.67;3.00;;;;;;;;5074828;28;51097;-51
2021/08/22 10:13:56;;;;;;;;;3.00;3.00;;;;;;;;5074272;28;50989;-55
2021/08/22 10:16:23;;;;;;;;;3.00;3.00;;;;;;;;5075099;28;50996;-54
2021/08/22 10:18:48;;;;;;;;;3.00;3.00;;;;;;;;5074412;28;51389;-53
2021/08/22 10:21:24;;;;;;;;;2.00;2.00;;;;;;;;5074067;28;51065;-51
2021/08/22 10:23:51;;;;;;;;;2.00;2.00;;;;;;;;5074088;28;51071;-53
2021/08/22 10:26:49;;;;;;;;;1.33;1.33;;;;;;;;5074645;28;51017;-51
2021/08/22 10:29:20;;;;;;;;;1.00;0.33;;;;;;;;5058361;28;51147;-54
2021/08/22 10:31:48;;;;;;;;;0.00;0.00;;;;;;;;5073850;28;51789;-54
2021/08/22 10:34:13;;;;;;;;;0.67;0.67;;;;;;;;5073971;28;50917;-54
2021/08/22 10:36:38;;;;;;;;;2.00;1.00;;;;;;;;5074338;28;51152;-54
2021/08/22 10:39:30;;;;;;;;;0.67;0.67;;;;;;;;5074118;28;50931;-54
2021/08/22 10:41:59;;;;;;;;;0.00;0.00;;;;;;;;5073783;28;51847;-54
2021/08/22 10:44:36;;;;;;;;;2.00;1.00;;;;;;;;5074210;28;50930;-50
2021/08/22 10:47:02;;;;;;;;;1.00;1.00;;;;;;;;5074264;28;51034;-52
2021/08/22 10:49:46;;;;;;;;;1.00;1.00;;;;;;;;5073383;28;51278;-54
2021/08/22 10:52:27;;;;;;;;;1.33;1.33;;;;;;;;5073647;28;52463;-52
2021/08/22 10:55:11;;;;;;;;;1.00;1.00;;;;;;;;5073498;28;51086;-55
2021/08/22 10:57:45;;;;;;;;;1.00;1.00;;;;;;;;5073635;28;50976;-52
2021/08/22 11:00:18;;;;;;;;;0.00;0.00;;;;;;;;5073542;28;51044;-55
2021/08/22 11:02:44;;;;;;;;;1.00;1.00;;;;;;;;5072343;28;52186;-54
2021/08/22 11:05:16;;;;;;;;;0.00;0.00;;;;;;;;5073378;28;50999;-55
2021/08/22 11:07:54;;;;;;;;;1.00;1.00;;;;;;;;5054559;28;51076;-53
2021/08/22 11:10:28;;;;;;;;;1.00;1.00;;;;;;;;5073382;28;51258;-53
2021/08/22 11:12:54;;;;;;;;;1.00;1.00;;;;;;;;5072987;28;51890;-52
2021/08/22 11:15:22;;;;;;;;;1.00;0.33;;;;;;;;5073076;28;51004;-54
2021/08/22 11:17:52;;;;;;;;;0.00;0.00;;;;;;;;5073165;28;51104;-55
2021/08/22 11:20:18;;;;;;;;;2.33;2.00;;;;;;;;5073057;28;50966;-54
2021/08/22 11:22:44;;;;;;;;;1.00;1.00;;;;;;;;5073026;28;52373;-53
2021/08/22 11:25:10;;;;;;;;;0.00;0.00;;;;;;;;5073199;28;51239;-52
2021/08/22 11:27:35;;;;;;;;;3.67;3.67;;;;;;;;5073300;28;50937;-55
2021/08/22 11:30:04;;;;;;;;;1.00;1.00;;;;;;;;5073649;28;51032;-55
2021/08/22 11:32:29;;;;;;;;;2.33;2.00;;;;;;;;5069256;27;51833;-54
2021/08/22 11:35:07;;;;;;;;;0.00;0.00;;;;;;;;5072788;28;51133;-54
2021/08/22 11:37:32;;;;;;;;;0.33;0.33;;;;;;;;5073498;28;50901;-54
2021/08/22 11:40:03;;;;;;;;;1.00;1.00;;;;;;;;5071859;28;50786;-54
2021/08/22 11:42:28;;;;;;;;;1.00;0.00;;;;;;;;5072977;28;52263;-53
2021/08/22 11:45:06;;;;;;;;;2.67;2.00;;;;;;;;5072804;28;50926;-53
2021/08/22 11:47:31;;;;;;;;;2.00;2.00;;;;;;;;5072640;28;51139;-54
2021/08/22 11:49:56;;;;;;;;;2.00;2.00;;;;;;;;5072954;28;51219;-55
2021/08/22 11:52:21;;;;;;;;;2.33;2.33;;;;;;;;5072556;28;50978;-54
2021/08/22 11:54:47;;;;;;;;;2.00;2.00;;;;;;;;5072264;28;50884;-54
2021/08/22 11:57:16;;;;;;;;;2.00;2.00;;;;;;;;5072933;28;51045;-54
2021/08/22 11:59:41;;;;;;;;;2.00;2.00;;;;;;;;5072153;28;51251;-54
2021/08/22 12:02:13;;;;;;;;;12.67;12.67;;;;;;;;5072105;28;51808;-53
2021/08/22 12:04:38;;;;;;;;;1.00;1.00;;;;;;;;5072316;28;51092;-54
2021/08/22 12:07:04;;;;;;;;;2.33;2.33;;;;;;;;5072391;28;51058;-56
2021/08/22 12:09:29;;;;;;;;;2.00;2.00;;;;;;;;5073091;28;51205;-55
2021/08/22 12:11:54;;;;;;;;;1.67;1.67;;;;;;;;5072167;28;51119;-52
2021/08/22 12:14:20;;;;;;;;;3.00;3.00;;;;;;;;5071823;28;51004;-53
2021/08/22 12:16:55;;;;;;;;;3.67;3.67;;;;;;;;5072004;28;51108;-52
2021/08/22 12:19:24;;;;;;;;;2.33;2.00;;;;;;;;5071294;28;51039;-53
2021/08/22 12:21:51;;;;;;;;;3.33;2.67;;;;;;;;5071311;28;52026;-53
2021/08/22 12:24:20;;;;;;;;;4.00;3.00;;;;;;;;5071900;28;50929;-53
2021/08/22 12:26:53;;;;;;;;;3.33;3.33;;;;;;;;5071434;28;51184;-53
2021/08/22 12:29:25;;;;;;;;;3.67;3.67;;;;;;;;5071754;28;51090;-53
2021/08/22 12:31:52;;;;;;;;;4.67;4.00;;;;;;;;5071233;28;51294;-53
2021/08/22 12:34:17;;;;;;;;;4.00;4.00;;;;;;;;5071788;28;50986;-54
2021/08/22 12:36:44;;;;;;;;;4.00;3.00;;;;;;;;5071460;28;50934;-54
2021/08/22 12:39:13;;;;;;;;;4.33;4.33;;;;;;;;5053436;28;51273;-53
2021/08/22 12:41:46;;;;;;;;;4.00;3.00;;;;;;;;5071069;28;52025;-54
2021/08/22 12:44:12;;;;;;;;;4.67;4.67;;;;;;;;5071539;28;51013;-51
2021/08/22 12:46:38;;;;;;;;;3.00;3.00;;;;;;;;5071358;28;51186;-54
2021/08/22 12:49:04;;;;;;;;;2.67;2.67;;;;;;;;5071204;28;51327;-54
2021/08/22 12:51:30;;;;;;;;;2.00;2.00;;;;;;;;5070784;28;52394;-53
2021/08/22 12:53:56;;;;;;;;;5.00;4.00;;;;;;;;5071305;28;51305;-54
2021/08/22 12:56:22;;;;;;;;;3.00;3.00;;;;;;;;5070681;28;50888;-54
2021/08/22 12:58:48;;;;;;;;;3.00;3.00;;;;;;;;5070511;28;50896;-52
2021/08/22 13:01:14;;;;;;;;;2.00;2.00;;;;;;;;5070136;28;51859;-53
2021/08/22 13:03:39;;;;;;;;;2.00;2.00;;;;;;;;5070033;28;51048;-54
2021/08/22 13:06:04;;;;;;;;;3.00;3.00;;;;;;;;5070155;28;51174;-54
2021/08/22 13:08:30;;;;;;;;;2.00;2.00;;;;;;;;5070446;28;50896;-54
2021/08/22 13:10:55;;;;;;;;;2.67;2.00;;;;;;;;5069581;28;51846;-52
2021/08/22 13:13:21;;;;;;;;;2.00;2.00;;;;;;;;5051356;28;51076;-54
2021/08/22 13:15:46;;;;;;;;;1.50;1.50;;;;;;;;5070524;28;51000;-52
2021/08/22 13:18:11;;;;;;;;;4.00;3.67;;;;;;;;5069600;28;50915;-50
2021/08/22 13:20:36;;;;;;;;;1.67;1.00;;;;;;;;5050751;28;51112;-54
2021/08/22 13:23:02;;;;;;;;;2.00;2.00;;;;;;;;5070049;28;51054;-53
2021/08/22 13:25:29;;;;;;;;;3.00;3.00;;;;;;;;5069645;28;51127;-53
2021/08/22 13:27:54;;;;;;;;;3.33;3.33;;;;;;;;5070331;28;51149;-51
2021/08/22 13:30:19;;;;;;;;;4.67;4.67;;;;;;;;5069324;28;51899;-52
2021/08/22 13:32:45;;;;;;;;;3.33;3.00;;;;;;;;5063910;27;50943;-53
2021/08/22 13:35:10;;;;;;;;;4.00;4.00;;;;;;;;5066865;28;51108;-52
2021/08/22 13:37:35;;;;;;;;;3.67;3.67;;;;;;;;5069578;28;50945;-55
2021/08/22 13:40:00;;;;;;;;;2.33;2.33;;;;;;;;5069543;28;51745;-55
2021/08/22 13:42:25;;;;;;;;;5.00;4.67;;;;;;;;5069819;28;50955;-55
2021/08/22 13:44:51;;;;;;;;;2.67;2.67;;;;;;;;5070078;28;51303;-53
2021/08/22 13:47:16;;;;;;;;;3.33;3.33;;;;;;;;5069495;28;51023;-55
2021/08/22 13:49:41;;;;;;;;;4.00;3.00;;;;;;;;5069513;28;51892;-54
2021/08/22 13:52:06;;;;;;;;;4.00;4.00;;;;;;;;5069544;28;50877;-55
2021/08/22 13:54:32;;;;;;;;;4.00;4.00;;;;;;;;5047491;28;51112;-55
2021/08/22 13:56:57;;;;;;;;;3.00;3.00;;;;;;;;5047838;28;51303;-54
2021/08/22 13:59:22;;;;;;;;;2.67;2.00;;;;;;;;5048373;28;51185;-53
2021/08/22 14:01:47;;;;;;;;;4.00;4.00;;;;;;;;5048980;28;50991;-55
2021/08/22 14:04:13;;;;;;;;;5.00;4.00;;;;;;;;5052222;28;50943;-53
2021/08/22 14:06:38;;;;;;;;;2.67;2.00;;;;;;;;5043352;28;51273;-55
2021/08/22 14:09:03;;;;;;;;;1.67;1.67;;;;;;;;5050641;28;52857;-54
2021/08/22 14:11:29;;;;;;;;;2.00;2.00;;;;;;;;5051035;28;51076;-55
2021/08/22 14:13:55;;;;;;;;;2.00;2.00;;;;;;;;5052924;28;51040;-57
2021/08/22 14:16:21;;;;;;;;;2.00;2.00;;;;;;;;5051269;28;51372;-54
2021/08/22 14:18:46;;;;;;;;;3.00;2.00;;;;;;;;5052086;28;52195;-53
2021/08/22 14:21:11;;;;;;;;;3.33;3.33;;;;;;;;5052725;28;50993;-53
2021/08/22 14:23:36;;;;;;;;;1.00;1.00;;;;;;;;5053055;28;51443;-54
2021/08/22 14:26:02;;;;;;;;;2.00;2.00;;;;;;;;5053437;28;51037;-54
2021/08/22 14:28:27;;;;;;;;;2.00;2.00;;;;;;;;5052446;28;51057;-54
2021/08/22 14:30:53;;;;;;;;;3.00;3.00;;;;;;;;5052176;28;51041;-52
2021/08/22 14:33:18;;;;;;;;;1.00;1.00;;;;;;;;5052369;28;50989;-53
2021/08/22 14:35:43;;;;;;;;;2.00;2.00;;;;;;;;5053135;28;50929;-52
2021/08/22 14:38:09;;;;;;;;;4.00;3.00;;;;;;;;5052396;28;51122;-54
2021/08/22 14:40:34;;;;;;;;;4.00;4.00;;;;;;;;5052590;28;50841;-56
2021/08/22 14:43:02;;;;;;;;;2.67;2.67;;;;;;;;5052494;28;50861;-52